sensor_id;sensor_type;location;lat;lon;timestamp;pressure;altitude;pressure_sealevel;temperature;humidity
60817;BME280;51921;51.518;-3.188;2023-09-08T00:01:03;101259.75;;;25.00;94.62
60817;BME280;51921;51.518;-3.188;2023-09-08T00:03:28;101262.22;;;24.10;97.53
60817;BME280;51921;51.518;-3.188;2023-09-08T00:05:54;101268.31;;;21.30;100.00
60817;BME280;51921;51.518;-3.188;2023-09-08T00:08:19;101268.09;;;19.68;100.00
60817;BME280;51921;51.518;-3.188;2023-09-08T00:10:45;101267.57;;;19.91;100.00
60817;BME280;51921;51.518;-3.188;2023-09-08T00:13:10;101270.65;;;18.35;100.00
60817;BME280;51921;51.518;-3.188;2023-09-08T00:15:36;101278.55;;;17.29;100.00
60817;BME280;51921;51.518;-3.188;2023-09-08T00:18:01;101276.86;;;16.60;100.00
60817;BME280;51921;51.518;-3.188;2023-09-08T00:20:26;101273.79;;;16.60;100.00
60817;BME280;51921;51.518;-3.188;2023-09-08T00:22:52;101277.01;;;16.48;100.00
60817;BME280;51921;51.518;-3.188;2023-09-08T00:25:17;101271.88;;;17.00;100.00
60817;BME280;51921;51.518;-3.188;2023-09-08T00:27:43;101269.35;;;17.20;100.00
60817;BME280;51921;51.518;-3.188;2023-09-08T00:30:09;101266.26;;;17.16;100.00
60817;BME280;51921;51.518;-3.188;2023-09-08T00:32:33;101259.47;;;17.38;100.00
60817;BME280;51921;51.518;-3.188;2023-09-08T00:34:58;101260.88;;;17.94;100.00
60817;BME280;51921;51.518;-3.188;2023-09-08T00:37:23;101263.36;;;17.03;100.00
60817;BME280;51921;51.518;-3.188;2023-09-08T00:39:48;101259.51;;;17.60;100.00
60817;BME280;51921;51.518;-3.188;2023-09-08T00:42:13;101259.72;;;18.84;100.00
60817;BME280;51921;51.518;-3.188;2023-09-08T00:44:39;101259.13;;;17.43;100.00
60817;BME280;51921;51.518;-3.188;2023-09-08T00:47:05;101263.52;;;17.73;100.00
60817;BME280;51921;51.518;-3.188;2023-09-08T00:49:30;101265.56;;;20.16;100.00
60817;BME280;51921;51.518;-3.188;2023-09-08T00:51:55;101265.26;;;21.35;100.00
60817;BME280;51921;51.518;-3.188;2023-09-08T00:54:21;101262.90;;;22.06;100.00
60817;BME280;51921;51.518;-3.188;2023-09-08T00:56:46;101259.42;;;22.97;100.00
60817;BME280;51921;51.518;-3.188;2023-09-08T00:59:12;101254.08;;;20.02;100.00
60817;BME280;51921;51.518;-3.188;2023-09-08T01:01:38;101253.65;;;17.35;100.00
60817;BME280;51921;51.518;-3.188;2023-09-08T01:04:03;101258.74;;;16.79;100.00
60817;BME280;51921;51.518;-3.188;2023-09-08T01:06:29;101261.56;;;17.00;100.00
60817;BME280;51921;51.518;-3.188;2023-09-08T01:08:54;101254.24;;;17.92;100.00
60817;BME280;51921;51.518;-3.188;2023-09-08T01:11:20;101248.81;;;17.49;100.00
60817;BME280;51921;51.518;-3.188;2023-09-08T01:13:44;101253.41;;;16.80;100.00
60817;BME280;51921;51.518;-3.188;2023-09-08T01:16:09;101247.48;;;16.49;100.00
60817;BME280;51921;51.518;-3.188;2023-09-08T01:18:34;101250.47;;;16.22;100.00
60817;BME280;51921;51.518;-3.188;2023-09-08T01:21:15;101243.74;;;15.69;100.00
60817;BME280;51921;51.518;-3.188;2023-09-08T01:23:34;101242.65;;;16.09;100.00
60817;BME280;51921;51.518;-3.188;2023-09-08T01:25:54;101237.83;;;17.43;100.00
60817;BME280;51921;51.518;-3.188;2023-09-08T01:28:17;101229.68;;;17.03;100.00
60817;BME280;51921;51.518;-3.188;2023-09-08T01:30:42;101226.79;;;18.94;100.00
60817;BME280;51921;51.518;-3.188;2023-09-08T01:33:07;101233.45;;;16.85;100.00
60817;BME280;51921;51.518;-3.188;2023-09-08T01:35:32;101232.37;;;16.46;100.00
60817;BME280;51921;51.518;-3.188;2023-09-08T01:37:57;101226.66;;;18.36;100.00
60817;BME280;51921;51.518;-3.188;2023-09-08T01:40:23;101225.37;;;20.34;100.00
60817;BME280;51921;51.518;-3.188;2023-09-08T01:42:48;101230.16;;;20.55;100.00
60817;BME280;51921;51.518;-3.188;2023-09-08T01:45:13;101231.90;;;21.86;100.00
60817;BME280;51921;51.518;-3.188;2023-09-08T01:47:38;101235.61;;;21.71;100.00
60817;BME280;51921;51.518;-3.188;2023-09-08T01:50:04;101237.73;;;22.17;100.00
60817;BME280;51921;51.518;-3.188;2023-09-08T01:52:29;101236.01;;;21.98;100.00
60817;BME280;51921;51.518;-3.188;2023-09-08T01:54:54;101238.15;;;21.09;100.00
60817;BME280;51921;51.518;-3.188;2023-09-08T01:57:20;101240.51;;;19.80;100.00
60817;BME280;51921;51.518;-3.188;2023-09-08T01:59:45;101239.45;;;22.11;100.00
60817;BME280;51921;51.518;-3.188;2023-09-08T02:02:10;101241.49;;;21.31;100.00
60817;BME280;51921;51.518;-3.188;2023-09-08T02:04:36;101239.75;;;19.15;100.00
60817;BME280;51921;51.518;-3.188;2023-09-08T02:07:01;101239.08;;;21.51;100.00
60817;BME280;51921;51.518;-3.188;2023-09-08T02:09:31;101236.16;;;21.32;100.00
60817;BME280;51921;51.518;-3.188;2023-09-08T02:11:51;101234.89;;;21.82;100.00
60817;BME280;51921;51.518;-3.188;2023-09-08T02:14:16;101235.10;;;22.69;100.00
60817;BME280;51921;51.518;-3.188;2023-09-08T02:16:42;101235.71;;;21.10;100.00
60817;BME280;51921;51.518;-3.188;2023-09-08T02:19:07;101236.07;;;19.36;100.00
60817;BME280;51921;51.518;-3.188;2023-09-08T02:21:32;101235.43;;;19.26;100.00
60817;BME280;51921;51.518;-3.188;2023-09-08T02:23:58;101239.12;;;19.11;100.00
60817;BME280;51921;51.518;-3.188;2023-09-08T02:26:23;101241.82;;;19.28;100.00
60817;BME280;51921;51.518;-3.188;2023-09-08T02:28:48;101247.28;;;21.34;100.00
60817;BME280;51921;51.518;-3.188;2023-09-08T02:31:13;101242.75;;;21.98;100.00
60817;BME280;51921;51.518;-3.188;2023-09-08T02:33:39;101243.40;;;22.25;100.00
60817;BME280;51921;51.518;-3.188;2023-09-08T02:36:05;101246.04;;;21.55;100.00
60817;BME280;51921;51.518;-3.188;2023-09-08T02:38:29;101247.53;;;21.57;100.00
60817;BME280;51921;51.518;-3.188;2023-09-08T02:40:55;101250.06;;;21.64;100.00
60817;BME280;51921;51.518;-3.188;2023-09-08T02:43:20;101249.38;;;20.02;100.00
60817;BME280;51921;51.518;-3.188;2023-09-08T02:45:47;101244.33;;;18.95;100.00
60817;BME280;51921;51.518;-3.188;2023-09-08T02:48:10;101241.99;;;20.74;100.00
60817;BME280;51921;51.518;-3.188;2023-09-08T02:50:36;101238.66;;;21.09;100.00
60817;BME280;51921;51.518;-3.188;2023-09-08T02:53:01;101236.45;;;21.91;99.70
60817;BME280;51921;51.518;-3.188;2023-09-08T02:55:26;101238.52;;;22.78;96.77
60817;BME280;51921;51.518;-3.188;2023-09-08T02:57:52;101229.22;;;18.12;100.00
60817;BME280;51921;51.518;-3.188;2023-09-08T03:00:18;101224.29;;;16.60;100.00
60817;BME280;51921;51.518;-3.188;2023-09-08T03:02:43;101223.71;;;16.14;100.00
60817;BME280;51921;51.518;-3.188;2023-09-08T03:05:08;101222.50;;;16.67;100.00
60817;BME280;51921;51.518;-3.188;2023-09-08T03:07:34;101217.20;;;18.44;100.00
60817;BME280;51921;51.518;-3.188;2023-09-08T03:09:59;101213.17;;;18.54;100.00
60817;BME280;51921;51.518;-3.188;2023-09-08T03:12:24;101216.66;;;16.59;100.00
60817;BME280;51921;51.518;-3.188;2023-09-08T03:14:50;101219.59;;;16.39;100.00
60817;BME280;51921;51.518;-3.188;2023-09-08T03:17:15;101225.45;;;18.39;100.00
60817;BME280;51921;51.518;-3.188;2023-09-08T03:19:44;101231.33;;;19.88;100.00
60817;BME280;51921;51.518;-3.188;2023-09-08T03:22:06;101241.60;;;21.03;100.00
60817;BME280;51921;51.518;-3.188;2023-09-08T03:24:32;101250.57;;;21.46;100.00
60817;BME280;51921;51.518;-3.188;2023-09-08T03:26:57;101250.78;;;21.54;100.00
60817;BME280;51921;51.518;-3.188;2023-09-08T03:29:23;101247.18;;;20.96;100.00
60817;BME280;51921;51.518;-3.188;2023-09-08T03:31:49;101248.30;;;17.84;100.00
60817;BME280;51921;51.518;-3.188;2023-09-08T03:34:14;101249.69;;;18.25;100.00
60817;BME280;51921;51.518;-3.188;2023-09-08T03:36:39;101245.31;;;17.05;100.00
60817;BME280;51921;51.518;-3.188;2023-09-08T03:39:05;101243.38;;;17.19;100.00
60817;BME280;51921;51.518;-3.188;2023-09-08T03:41:31;101244.21;;;19.91;100.00
60817;BME280;51921;51.518;-3.188;2023-09-08T03:43:57;101252.44;;;20.90;100.00
60817;BME280;51921;51.518;-3.188;2023-09-08T03:46:22;101256.90;;;21.81;100.00
60817;BME280;51921;51.518;-3.188;2023-09-08T03:48:48;101252.84;;;21.87;100.00
60817;BME280;51921;51.518;-3.188;2023-09-08T03:51:14;101252.02;;;21.87;100.00
60817;BME280;51921;51.518;-3.188;2023-09-08T03:53:38;101251.93;;;21.75;100.00
60817;BME280;51921;51.518;-3.188;2023-09-08T03:56:04;101245.31;;;22.29;97.12
60817;BME280;51921;51.518;-3.188;2023-09-08T03:58:30;101236.41;;;22.66;95.28
60817;BME280;51921;51.518;-3.188;2023-09-08T04:00:55;101234.08;;;19.72;100.00
60817;BME280;51921;51.518;-3.188;2023-09-08T04:03:20;101230.71;;;17.48;100.00
60817;BME280;51921;51.518;-3.188;2023-09-08T04:05:46;101228.03;;;17.22;100.00
60817;BME280;51921;51.518;-3.188;2023-09-08T04:08:11;101225.78;;;17.20;100.00
60817;BME280;51921;51.518;-3.188;2023-09-08T04:10:37;101227.96;;;16.88;100.00
60817;BME280;51921;51.518;-3.188;2023-09-08T04:13:02;101236.46;;;18.85;100.00
60817;BME280;51921;51.518;-3.188;2023-09-08T04:15:27;101238.33;;;20.34;100.00
60817;BME280;51921;51.518;-3.188;2023-09-08T04:17:53;101235.88;;;21.07;100.00
60817;BME280;51921;51.518;-3.188;2023-09-08T04:20:18;101234.70;;;20.72;100.00
60817;BME280;51921;51.518;-3.188;2023-09-08T04:22:43;101232.79;;;21.92;100.00
60817;BME280;51921;51.518;-3.188;2023-09-08T04:25:09;101231.71;;;20.12;100.00
60817;BME280;51921;51.518;-3.188;2023-09-08T04:27:34;101229.46;;;17.42;100.00
60817;BME280;51921;51.518;-3.188;2023-09-08T04:29:59;101234.93;;;16.83;100.00
60817;BME280;51921;51.518;-3.188;2023-09-08T04:32:24;101231.22;;;17.58;100.00
60817;BME280;51921;51.518;-3.188;2023-09-08T04:34:50;101228.81;;;17.40;100.00
60817;BME280;51921;51.518;-3.188;2023-09-08T04:37:15;101229.56;;;20.29;100.00
60817;BME280;51921;51.518;-3.188;2023-09-08T04:39:40;101231.95;;;21.29;100.00
60817;BME280;51921;51.518;-3.188;2023-09-08T04:42:06;101231.87;;;21.90;100.00
60817;BME280;51921;51.518;-3.188;2023-09-08T04:44:31;101235.70;;;21.43;100.00
60817;BME280;51921;51.518;-3.188;2023-09-08T04:46:56;101234.75;;;22.07;99.17
60817;BME280;51921;51.518;-3.188;2023-09-08T04:49:22;101240.03;;;21.63;98.51
60817;BME280;51921;51.518;-3.188;2023-09-08T04:51:47;101235.67;;;21.82;95.89
60817;BME280;51921;51.518;-3.188;2023-09-08T04:54:12;101236.88;;;22.70;92.66
60817;BME280;51921;51.518;-3.188;2023-09-08T04:56:38;101236.20;;;23.21;89.58
60817;BME280;51921;51.518;-3.188;2023-09-08T04:59:03;101235.83;;;22.07;90.30
60817;BME280;51921;51.518;-3.188;2023-09-08T05:01:28;101236.86;;;21.84;93.67
60817;BME280;51921;51.518;-3.188;2023-09-08T05:03:54;101237.89;;;21.70;95.31
60817;BME280;51921;51.518;-3.188;2023-09-08T05:06:19;101239.05;;;22.31;93.71
60817;BME280;51921;51.518;-3.188;2023-09-08T05:08:45;101242.04;;;21.50;95.71
60817;BME280;51921;51.518;-3.188;2023-09-08T05:11:10;101240.45;;;21.93;93.97
60817;BME280;51921;51.518;-3.188;2023-09-08T05:13:35;101239.37;;;22.69;90.74
60817;BME280;51921;51.518;-3.188;2023-09-08T05:16:01;101236.91;;;22.60;90.78
60817;BME280;51921;51.518;-3.188;2023-09-08T05:18:26;101232.31;;;22.77;88.59
60817;BME280;51921;51.518;-3.188;2023-09-08T05:20:51;101230.40;;;22.75;86.97
60817;BME280;51921;51.518;-3.188;2023-09-08T05:23:17;101231.54;;;23.01;87.66
60817;BME280;51921;51.518;-3.188;2023-09-08T05:25:42;101227.05;;;25.11;78.48
60817;BME280;51921;51.518;-3.188;2023-09-08T05:28:07;101225.70;;;25.40;77.98
60817;BME280;51921;51.518;-3.188;2023-09-08T05:30:33;101229.26;;;24.22;82.52
60817;BME280;51921;51.518;-3.188;2023-09-08T05:32:58;101232.52;;;23.32;85.24
60817;BME280;51921;51.518;-3.188;2023-09-08T05:35:23;101233.37;;;21.38;94.87
60817;BME280;51921;51.518;-3.188;2023-09-08T05:37:49;101234.59;;;22.12;94.19
60817;BME280;51921;51.518;-3.188;2023-09-08T05:40:14;101233.02;;;22.29;92.82
60817;BME280;51921;51.518;-3.188;2023-09-08T05:42:40;101231.24;;;21.50;95.52
60817;BME280;51921;51.518;-3.188;2023-09-08T05:45:06;101229.22;;;21.82;94.94
60817;BME280;51921;51.518;-3.188;2023-09-08T05:47:31;101229.44;;;22.41;91.84
60817;BME280;51921;51.518;-3.188;2023-09-08T05:49:56;101230.71;;;21.81;94.64
60817;BME280;51921;51.518;-3.188;2023-09-08T05:52:21;101235.59;;;21.81;94.53
60817;BME280;51921;51.518;-3.188;2023-09-08T05:54:46;101238.35;;;22.49;91.79
60817;BME280;51921;51.518;-3.188;2023-09-08T05:57:12;101238.98;;;22.28;93.21
60817;BME280;51921;51.518;-3.188;2023-09-08T05:59:37;101240.50;;;22.12;92.20
60817;BME280;51921;51.518;-3.188;2023-09-08T06:02:03;101237.57;;;21.92;91.69
60817;BME280;51921;51.518;-3.188;2023-09-08T06:04:29;101234.35;;;21.41;95.44
60817;BME280;51921;51.518;-3.188;2023-09-08T06:06:55;101233.69;;;21.55;98.57
60817;BME280;51921;51.518;-3.188;2023-09-08T06:09:20;101239.24;;;22.12;95.22
60817;BME280;51921;51.518;-3.188;2023-09-08T06:11:45;101245.84;;;22.21;93.59
60817;BME280;51921;51.518;-3.188;2023-09-08T06:14:10;101256.50;;;22.17;93.30
60817;BME280;51921;51.518;-3.188;2023-09-08T06:16:35;101264.41;;;22.84;92.08
60817;BME280;51921;51.518;-3.188;2023-09-08T06:19:01;101272.04;;;22.24;93.60
60817;BME280;51921;51.518;-3.188;2023-09-08T06:21:26;101279.59;;;17.32;100.00
60817;BME280;51921;51.518;-3.188;2023-09-08T06:23:52;101279.76;;;19.61;100.00
60817;BME280;51921;51.518;-3.188;2023-09-08T06:26:17;101283.87;;;20.46;100.00
60817;BME280;51921;51.518;-3.188;2023-09-08T06:28:43;101283.42;;;21.14;100.00
60817;BME280;51921;51.518;-3.188;2023-09-08T06:31:08;101281.61;;;21.48;100.00
60817;BME280;51921;51.518;-3.188;2023-09-08T06:33:34;101280.88;;;22.64;95.95
60817;BME280;51921;51.518;-3.188;2023-09-08T06:35:58;101279.70;;;23.09;92.66
60817;BME280;51921;51.518;-3.188;2023-09-08T06:38:24;101273.51;;;22.88;93.66
60817;BME280;51921;51.518;-3.188;2023-09-08T06:40:49;101269.24;;;24.12;89.12
60817;BME280;51921;51.518;-3.188;2023-09-08T06:43:15;101267.00;;;22.89;94.09
60817;BME280;51921;51.518;-3.188;2023-09-08T06:45:41;101273.97;;;23.47;92.13
60817;BME280;51921;51.518;-3.188;2023-09-08T06:48:06;101277.60;;;22.72;93.83
60817;BME280;51921;51.518;-3.188;2023-09-08T06:50:32;101284.39;;;22.34;97.60
60817;BME280;51921;51.518;-3.188;2023-09-08T06:52:57;101294.17;;;21.76;99.90
60817;BME280;51921;51.518;-3.188;2023-09-08T06:55:23;101308.58;;;21.10;100.00
60817;BME280;51921;51.518;-3.188;2023-09-08T06:57:56;101325.10;;;21.50;100.00
60817;BME280;51921;51.518;-3.188;2023-09-08T07:00:14;101328.21;;;22.07;98.26
60817;BME280;51921;51.518;-3.188;2023-09-08T07:02:39;101321.87;;;22.40;96.04
60817;BME280;51921;51.518;-3.188;2023-09-08T07:05:04;101324.86;;;21.30;98.56
60817;BME280;51921;51.518;-3.188;2023-09-08T07:07:34;101326.50;;;23.01;93.56
60817;BME280;51921;51.518;-3.188;2023-09-08T07:09:54;101326.31;;;22.33;94.57
60817;BME280;51921;51.518;-3.188;2023-09-08T07:12:19;101321.76;;;23.29;88.67
60817;BME280;51921;51.518;-3.188;2023-09-08T07:14:50;101318.85;;;22.08;95.16
60817;BME280;51921;51.518;-3.188;2023-09-08T07:17:09;101306.04;;;25.52;81.02
60817;BME280;51921;51.518;-3.188;2023-09-08T07:19:35;101303.01;;;24.67;82.45
60817;BME280;51921;51.518;-3.188;2023-09-08T07:22:00;101302.39;;;21.15;100.00
60817;BME280;51921;51.518;-3.188;2023-09-08T07:24:26;101299.85;;;17.97;100.00
60817;BME280;51921;51.518;-3.188;2023-09-08T07:26:51;101297.30;;;18.05;100.00
60817;BME280;51921;51.518;-3.188;2023-09-08T07:29:17;101297.85;;;19.36;100.00
60817;BME280;51921;51.518;-3.188;2023-09-08T07:31:41;101298.37;;;22.01;100.00
60817;BME280;51921;51.518;-3.188;2023-09-08T07:34:06;101297.45;;;19.35;100.00
60817;BME280;51921;51.518;-3.188;2023-09-08T07:36:32;101301.60;;;18.31;100.00
60817;BME280;51921;51.518;-3.188;2023-09-08T07:38:57;101298.53;;;17.79;100.00
60817;BME280;51921;51.518;-3.188;2023-09-08T07:41:22;101298.51;;;18.49;100.00
60817;BME280;51921;51.518;-3.188;2023-09-08T07:43:48;101303.23;;;16.80;100.00
60817;BME280;51921;51.518;-3.188;2023-09-08T07:46:13;101301.61;;;17.96;100.00
60817;BME280;51921;51.518;-3.188;2023-09-08T07:48:38;101308.74;;;17.18;100.00
60817;BME280;51921;51.518;-3.188;2023-09-08T07:51:03;101310.96;;;18.45;100.00
60817;BME280;51921;51.518;-3.188;2023-09-08T07:53:28;101311.11;;;20.18;100.00
60817;BME280;51921;51.518;-3.188;2023-09-08T07:55:53;101310.03;;;21.98;100.00
60817;BME280;51921;51.518;-3.188;2023-09-08T07:58:24;101306.38;;;23.28;99.24
60817;BME280;51921;51.518;-3.188;2023-09-08T08:00:44;101305.18;;;23.09;96.36
60817;BME280;51921;51.518;-3.188;2023-09-08T08:03:09;101307.95;;;20.26;100.00
60817;BME280;51921;51.518;-3.188;2023-09-08T08:05:36;101308.44;;;19.09;100.00
60817;BME280;51921;51.518;-3.188;2023-09-08T08:08:00;101308.50;;;18.84;100.00
60817;BME280;51921;51.518;-3.188;2023-09-08T08:10:26;101310.26;;;18.17;100.00
60817;BME280;51921;51.518;-3.188;2023-09-08T08:12:57;101309.10;;;19.00;100.00
60817;BME280;51921;51.518;-3.188;2023-09-08T08:15:19;101308.93;;;19.20;100.00
60817;BME280;51921;51.518;-3.188;2023-09-08T08:17:42;101307.97;;;21.38;100.00
60817;BME280;51921;51.518;-3.188;2023-09-08T08:20:10;101309.10;;;20.40;100.00
60817;BME280;51921;51.518;-3.188;2023-09-08T08:22:34;101314.63;;;21.86;100.00
60817;BME280;51921;51.518;-3.188;2023-09-08T08:24:58;101315.22;;;24.16;90.52
60817;BME280;51921;51.518;-3.188;2023-09-08T08:27:24;101317.98;;;23.38;90.74
60817;BME280;51921;51.518;-3.188;2023-09-08T08:29:50;101322.96;;;23.77;89.35
60817;BME280;51921;51.518;-3.188;2023-09-08T08:32:15;101328.70;;;23.67;88.48
60817;BME280;51921;51.518;-3.188;2023-09-08T08:34:40;101328.91;;;24.57;85.33
60817;BME280;51921;51.518;-3.188;2023-09-08T08:37:06;101334.07;;;25.49;80.09
60817;BME280;51921;51.518;-3.188;2023-09-08T08:39:32;101338.38;;;24.36;82.47
60817;BME280;51921;51.518;-3.188;2023-09-08T08:41:57;101339.82;;;24.79;83.12
60817;BME280;51921;51.518;-3.188;2023-09-08T08:44:23;101334.52;;;24.66;79.57
60817;BME280;51921;51.518;-3.188;2023-09-08T08:46:48;101335.54;;;25.73;77.50
60817;BME280;51921;51.518;-3.188;2023-09-08T08:49:15;101339.31;;;26.52;73.01
60817;BME280;51921;51.518;-3.188;2023-09-08T08:51:38;101337.97;;;23.67;79.75
60817;BME280;51921;51.518;-3.188;2023-09-08T08:54:04;101338.99;;;26.24;73.63
60817;BME280;51921;51.518;-3.188;2023-09-08T08:56:30;101333.88;;;25.40;72.86
60817;BME280;51921;51.518;-3.188;2023-09-08T08:58:55;101334.01;;;26.77;67.99
60817;BME280;51921;51.518;-3.188;2023-09-08T09:01:20;101330.14;;;28.79;59.24
60817;BME280;51921;51.518;-3.188;2023-09-08T09:03:47;101330.18;;;25.17;72.45
60817;BME280;51921;51.518;-3.188;2023-09-08T09:06:12;101329.38;;;27.60;62.87
60817;BME280;51921;51.518;-3.188;2023-09-08T09:08:39;101328.04;;;27.46;63.68
60817;BME280;51921;51.518;-3.188;2023-09-08T09:11:02;101336.42;;;28.25;59.98
60817;BME280;51921;51.518;-3.188;2023-09-08T09:13:28;101343.31;;;25.92;65.09
60817;BME280;51921;51.518;-3.188;2023-09-08T09:15:58;101341.46;;;26.53;66.06
60817;BME280;51921;51.518;-3.188;2023-09-08T09:18:18;101334.52;;;23.37;74.98
60817;BME280;51921;51.518;-3.188;2023-09-08T09:20:53;101336.15;;;24.51;77.77
60817;BME280;51921;51.518;-3.188;2023-09-08T09:23:10;101336.01;;;25.80;68.27
60817;BME280;51921;51.518;-3.188;2023-09-08T09:25:34;101334.53;;;25.36;70.08
60817;BME280;51921;51.518;-3.188;2023-09-08T09:28:00;101342.51;;;25.59;68.38
60817;BME280;51921;51.518;-3.188;2023-09-08T09:30:25;101345.92;;;26.34;65.74
60817;BME280;51921;51.518;-3.188;2023-09-08T09:32:59;101344.04;;;23.64;78.23
60817;BME280;51921;51.518;-3.188;2023-09-08T09:35:15;101353.30;;;26.04;69.66
60817;BME280;51921;51.518;-3.188;2023-09-08T09:37:41;101358.38;;;26.45;65.17
60817;BME280;51921;51.518;-3.188;2023-09-08T09:40:07;101357.12;;;25.50;68.77
60817;BME280;51921;51.518;-3.188;2023-09-08T09:42:31;101356.68;;;23.97;72.50
60817;BME280;51921;51.518;-3.188;2023-09-08T09:44:57;101354.58;;;22.38;82.83
60817;BME280;51921;51.518;-3.188;2023-09-08T09:47:21;101356.60;;;20.74;96.74
60817;BME280;51921;51.518;-3.188;2023-09-08T09:49:48;101357.50;;;22.35;90.88
60817;BME280;51921;51.518;-3.188;2023-09-08T09:52:12;101354.83;;;25.24;75.85
60817;BME280;51921;51.518;-3.188;2023-09-08T09:54:38;101357.71;;;26.27;67.97
60817;BME280;51921;51.518;-3.188;2023-09-08T09:57:03;101353.81;;;23.80;79.03
60817;BME280;51921;51.518;-3.188;2023-09-08T09:59:29;101348.54;;;24.99;70.86
60817;BME280;51921;51.518;-3.188;2023-09-08T10:01:54;101346.84;;;21.68;86.63
60817;BME280;51921;51.518;-3.188;2023-09-08T10:04:19;101347.36;;;21.03;94.78
60817;BME280;51921;51.518;-3.188;2023-09-08T10:06:45;101346.95;;;23.45;84.10
60817;BME280;51921;51.518;-3.188;2023-09-08T10:09:10;101352.89;;;22.00;89.33
60817;BME280;51921;51.518;-3.188;2023-09-08T10:11:41;101353.83;;;21.98;93.50
60817;BME280;51921;51.518;-3.188;2023-09-08T10:14:01;101355.45;;;24.38;83.52
60817;BME280;51921;51.518;-3.188;2023-09-08T10:16:27;101351.80;;;24.80;77.53
60817;BME280;51921;51.518;-3.188;2023-09-08T10:18:52;101353.98;;;26.62;65.05
60817;BME280;51921;51.518;-3.188;2023-09-08T10:21:18;101355.66;;;27.51;64.39
60817;BME280;51921;51.518;-3.188;2023-09-08T10:23:47;101357.70;;;26.56;69.89
60817;BME280;51921;51.518;-3.188;2023-09-08T10:26:10;101354.77;;;27.05;66.39
60817;BME280;51921;51.518;-3.188;2023-09-08T10:28:34;101354.27;;;27.57;65.97
60817;BME280;51921;51.518;-3.188;2023-09-08T10:31:00;101351.03;;;27.23;62.94
60817;BME280;51921;51.518;-3.188;2023-09-08T10:33:24;101356.64;;;25.26;67.10
60817;BME280;51921;51.518;-3.188;2023-09-08T10:35:50;101351.49;;;24.32;75.94
60817;BME280;51921;51.518;-3.188;2023-09-08T10:38:24;101349.83;;;26.60;66.77
60817;BME280;51921;51.518;-3.188;2023-09-08T10:40:39;101343.25;;;26.94;62.21
60817;BME280;51921;51.518;-3.188;2023-09-08T10:43:08;101338.59;;;27.86;59.15
60817;BME280;51921;51.518;-3.188;2023-09-08T10:45:31;101339.77;;;26.91;58.93
60817;BME280;51921;51.518;-3.188;2023-09-08T10:47:56;101338.04;;;29.35;53.07
60817;BME280;51921;51.518;-3.188;2023-09-08T10:50:27;101341.51;;;28.74;55.98
60817;BME280;51921;51.518;-3.188;2023-09-08T10:55:12;101344.18;;;27.48;56.97
60817;BME280;51921;51.518;-3.188;2023-09-08T10:57:37;101349.69;;;26.46;65.10
60817;BME280;51921;51.518;-3.188;2023-09-08T11:00:04;101345.10;;;28.81;58.51
60817;BME280;51921;51.518;-3.188;2023-09-08T11:02:34;101344.30;;;27.53;56.73
60817;BME280;51921;51.518;-3.188;2023-09-08T11:04:53;101342.88;;;28.24;54.79
60817;BME280;51921;51.518;-3.188;2023-09-08T11:07:19;101338.12;;;27.63;53.48
60817;BME280;51921;51.518;-3.188;2023-09-08T11:09:44;101338.42;;;25.59;61.28
60817;BME280;51921;51.518;-3.188;2023-09-08T11:12:10;101334.15;;;27.57;56.15
60817;BME280;51921;51.518;-3.188;2023-09-08T11:14:36;101333.65;;;27.08;55.68
60817;BME280;51921;51.518;-3.188;2023-09-08T11:17:03;101335.24;;;28.29;52.56
60817;BME280;51921;51.518;-3.188;2023-09-08T11:21:52;101338.11;;;25.63;57.28
60817;BME280;51921;51.518;-3.188;2023-09-08T11:24:17;101337.31;;;26.29;62.02
60817;BME280;51921;51.518;-3.188;2023-09-08T11:26:43;101329.42;;;27.76;54.00
60817;BME280;51921;51.518;-3.188;2023-09-08T11:29:09;101328.77;;;29.06;49.62
60817;BME280;51921;51.518;-3.188;2023-09-08T11:31:33;101327.36;;;28.99;48.09
60817;BME280;51921;51.518;-3.188;2023-09-08T11:33:58;101326.74;;;28.90;48.70
60817;BME280;51921;51.518;-3.188;2023-09-08T11:36:24;101324.03;;;27.28;48.55
60817;BME280;51921;51.518;-3.188;2023-09-08T11:38:49;101320.41;;;29.35;46.67
60817;BME280;51921;51.518;-3.188;2023-09-08T11:41:14;101320.83;;;29.39;45.91
60817;BME280;51921;51.518;-3.188;2023-09-08T11:43:40;101318.17;;;29.60;43.84
60817;BME280;51921;51.518;-3.188;2023-09-08T11:46:05;101321.43;;;27.83;47.98
60817;BME280;51921;51.518;-3.188;2023-09-08T11:48:31;101325.27;;;26.76;53.02
60817;BME280;51921;51.518;-3.188;2023-09-08T11:50:55;101323.33;;;28.26;47.07
60817;BME280;51921;51.518;-3.188;2023-09-08T11:53:20;101319.60;;;30.16;45.96
60817;BME280;51921;51.518;-3.188;2023-09-08T11:55:46;101310.91;;;28.35;47.30
60817;BME280;51921;51.518;-3.188;2023-09-08T11:58:11;101307.69;;;28.11;48.18
60817;BME280;51921;51.518;-3.188;2023-09-08T12:00:36;101300.39;;;29.16;46.75
60817;BME280;51921;51.518;-3.188;2023-09-08T12:03:10;101299.90;;;27.94;45.65
60817;BME280;51921;51.518;-3.188;2023-09-08T12:05:27;101306.62;;;25.55;52.70
60817;BME280;51921;51.518;-3.188;2023-09-08T12:07:54;101304.44;;;24.39;58.03
60817;BME280;51921;51.518;-3.188;2023-09-08T12:10:18;101309.70;;;22.40;69.40
60817;BME280;51921;51.518;-3.188;2023-09-08T12:12:45;101308.73;;;22.48;72.67
60817;BME280;51921;51.518;-3.188;2023-09-08T12:15:09;101306.41;;;22.56;73.22
60817;BME280;51921;51.518;-3.188;2023-09-08T12:19:59;101308.17;;;26.76;61.09
60817;BME280;51921;51.518;-3.188;2023-09-08T12:22:24;101310.46;;;26.56;58.49
60817;BME280;51921;51.518;-3.188;2023-09-08T12:24:56;101304.35;;;27.57;57.18
60817;BME280;51921;51.518;-3.188;2023-09-08T12:27:15;101306.27;;;25.25;62.52
60817;BME280;51921;51.518;-3.188;2023-09-08T12:29:41;101304.05;;;24.02;70.31
60817;BME280;51921;51.518;-3.188;2023-09-08T12:32:07;101304.38;;;26.70;61.23